Celebrity Galaxy — 9HJH9 — position and weather

sailwx.info

Track history (hours):
 
Tides and Currents Weather Stations Pressure Air Temp Water Temp Dewpoint Dewpoint Depression Visibility Wind Speed Wind Dir Waves Ship Positions

Celebrity Galaxy

Last reported at 2019-Sep-17 07:19 UTC. Time now 2019-Sep-17 08:19 UTC.
Position N 49°52' W 005°35'.

Length 262 m; draft 8.5 m.

Type: Passenger vessel. MMSI: 249051000.

Date/timePositionNaut miles runAvg speedWind from/ knotsBaromVisibWave heightAir tempDewpointWater temp
2019-Sep-17 07:19N 49°52' W 005°35'4710.3
2019-Sep-17 02:46N 50°30' W 006°16'913.3
2019-Sep-17 02:05N 50°37' W 006°27'113.3
2019-Sep-17 02:00N 50°38' W 006°28'713.1
2019-Sep-17 01:27N 50°43' W 006°36'813.1
2019-Sep-17 00:51N 50°48' W 006°45'713.0
2019-Sep-17 00:20N 50°53' W 006°52'512.9
2019-Sep-16 23:55N 50°57' W 006°58'4012.8
2019-Sep-16 20:48N 51°25' W 007°43'413.0
2019-Sep-16 20:30N 51°28' W 007°48'612.9
2019-Sep-16 20:00N 51°32' W 007°55'612.8
2019-Sep-16 19:30N 51°37' W 008°02'612.9
2019-Sep-16 19:00N 51°41' W 008°09'612.2
2019-Sep-16 18:30N 51°46' W 008°15'5 9.2
2019-Sep-16 18:01N 51°51' W 008°16'1 2.2
2019-Sep-16 17:29N 51°51' W 008°18'0 0.0
2019-Sep-16 17:01N 51°51' W 008°18'0 0.0
2019-Sep-16 16:28N 51°51' W 008°18'0 0.0
2019-Sep-16 15:58N 51°51' W 008°18'0 0.0
2019-Sep-16 15:28N 51°51' W 008°18'0 0.0
2019-Sep-16 14:58N 51°51' W 008°18'0 0.0
2019-Sep-16 14:28N 51°51' W 008°18'0 0.0
2019-Sep-16 13:58N 51°51' W 008°18'0 0.0
2019-Sep-16 13:28N 51°51' W 008°18'0 0.0
2019-Sep-16 12:58N 51°51' W 008°18'0 0.0
2019-Sep-16 12:28N 51°51' W 008°18'0 0.0
2019-Sep-16 11:58N 51°51' W 008°18'0 0.0
2019-Sep-16 11:28N 51°51' W 008°18'0 0.0
2019-Sep-16 10:58N 51°51' W 008°18'0 0.0
2019-Sep-16 10:28N 51°51' W 008°18'0 0.0
2019-Sep-16 09:58N 51°51' W 008°18'0 0.0
2019-Sep-16 09:28N 51°51' W 008°18'0 0.0
2019-Sep-16 08:58N 51°51' W 008°18'0 0.0
2019-Sep-16 08:28N 51°51' W 008°18'0 0.0
2019-Sep-16 08:00N 51°51' W 008°18'1 2.5
2019-Sep-16 07:30N 51°51' W 008°16'611.0
2019-Sep-16 07:00N 51°45' W 008°15'5 9.2
2019-Sep-16 06:31N 51°41' W 008°13'510.6
2019-Sep-16 06:00N 51°40' W 008°05'611.1
2019-Sep-16 05:30N 51°41' W 007°57'611.3
2019-Sep-16 05:00N 51°43' W 007°48'713.4
2019-Sep-16 04:30N 51°46' W 007°38'816.4
2019-Sep-16 04:00N 51°49' W 007°26'816.9
2019-Sep-16 03:30N 51°52' W 007°13'7115.9
2019-Sep-15 23:02N 52°45' W 005°54'116.6
2019-Sep-15 22:59N 52°45' W 005°54'816.5
2019-Sep-15 22:30N 52°53' W 005°53'816.3
2019-Sep-15 22:00N 53°01' W 005°55'815.4
2019-Sep-15 21:30N 53°09' W 005°57'815.9
2019-Sep-15 21:01N 53°16' W 006°01'611.7
2019-Sep-15 20:30N 53°21' W 006°08'3 5.5
2019-Sep-15 20:00N 53°21' W 006°13'0 0.0
2019-Sep-15 19:23N 53°21' W 006°13'0 0.0
2019-Sep-15 18:47N 53°21' W 006°13'0 0.0
2019-Sep-15 18:14N 53°21' W 006°13'0 0.0
2019-Sep-15 17:59N 53°21' W 006°13'0 0.0
2019-Sep-15 17:29N 53°21' W 006°13'0 0.0
2019-Sep-15 16:59N 53°21' W 006°13'0 0.0
2019-Sep-15 16:29N 53°21' W 006°13'0 0.0
2019-Sep-15 16:00N 53°21' W 006°13'0 0.0
2019-Sep-15 15:27N 53°21' W 006°13'0 0.0
2019-Sep-15 14:54N 53°21' W 006°13'0 0.0
2019-Sep-15 14:27N 53°21' W 006°13'0 0.0
2019-Sep-15 14:00N 53°21' W 006°13'0 0.0
2019-Sep-15 13:17N 53°21' W 006°13'0 0.0
2019-Sep-15 12:47N 53°21' W 006°13'0 0.0
2019-Sep-15 12:14N 53°21' W 006°13'0 0.0
2019-Sep-15 11:44N 53°21' W 006°13'0 0.0
2019-Sep-15 11:14N 53°21' W 006°13'0 0.0
2019-Sep-15 10:59N 53°21' W 006°13'0 0.0
2019-Sep-15 10:28N 53°21' W 006°13'0 0.0
2019-Sep-15 09:46N 53°21' W 006°13'0 0.0
2019-Sep-15 09:16N 53°21' W 006°13'0 0.0
2019-Sep-15 09:00N 53°21' W 006°13'1 2.1
2019-Sep-15 08:30N 53°21' W 006°11'4 8.9
2019-Sep-15 08:00N 53°20' W 006°04'510.9
2019-Sep-15 07:30N 53°23' W 005°56'611.4
2019-Sep-15 06:56N 53°28' W 005°49'3811.8
2019-Sep-15 03:42N 54°05' W 005°30'312.4
2019-Sep-15 03:27N 54°08' W 005°28'714.8
2019-Sep-15 02:57N 54°15' W 005°24'715.8
2019-Sep-15 02:30N 54°22' W 005°20'815.7
2019-Sep-15 02:00N 54°30' W 005°20'816.4
2019-Sep-15 01:30N 54°38' W 005°22'816.2
2019-Sep-15 01:00N 54°45' W 005°28'3317.9
2019-Sep-14 23:09N 55°13' W 005°58'319.9
2019-Sep-14 22:59N 55°16' W 006°01'918.5
2019-Sep-14 22:30N 55°22' W 006°13'917.9
2019-Sep-14 22:00N 55°26' W 006°27'1019.7
2019-Sep-14 21:30N 55°34' W 006°37'1019.7
2019-Sep-14 21:00N 55°42' W 006°47'1018.9
2019-Sep-14 20:30N 55°50' W 006°56'9915.0
2019-Sep-14 13:53N 57°29' W 006°54'  
2019-Sep-08 16:05N 59°06' W 002°27'218.8
2019-Sep-08 16:00N 59°05' W 002°29'918.4
2019-Sep-08 15:31N 59°01' W 002°45'713.1
2019-Sep-08 15:00N 59°01' W 002°58'1 2.4
2019-Sep-08 14:30N 58°60' W 002°58'0 0.0
2019-Sep-08 14:00N 58°60' W 002°58'0 0.0
2019-Sep-08 13:30N 58°60' W 002°58'0 0.0
2019-Sep-08 13:00N 58°60' W 002°58'0 0.0
2019-Sep-08 12:30N 58°60' W 002°58'0 0.0
2019-Sep-08 12:00N 58°60' W 002°58'0 0.0
2019-Sep-08 11:30N 58°60' W 002°58'0 0.0
2019-Sep-08 11:00N 58°60' W 002°58'0 0.0
2019-Sep-08 10:30N 58°60' W 002°58'0 0.0
2019-Sep-08 09:58N 58°60' W 002°58'0 0.0
2019-Sep-08 09:28N 58°60' W 002°58'0 0.0
2019-Sep-08 08:58N 58°60' W 002°58'0 0.0
2019-Sep-08 08:28N 58°60' W 002°58'0 0.0
2019-Sep-08 07:58N 58°60' W 002°58'0 0.0
2019-Sep-08 07:28N 58°60' W 002°58'0 0.0
2019-Sep-08 06:59N 58°60' W 002°58'0 0.5
2019-Sep-08 06:31N 59°00' W 002°58'5 9.4
2019-Sep-08 06:00N 59°01' W 002°49'612.4
2019-Sep-08 05:30N 58°60' W 002°37'711.9
2019-Sep-08 04:54N 58°55' W 002°27'1015.3
2019-Sep-08 04:16N 58°46' W 002°20'  
Track history (hours):
 
Tides and Currents Weather Stations Pressure Air Temp Water Temp Dewpoint Dewpoint Depression Visibility Wind Speed Wind Dir Waves Ship Positions

Celebrity Galaxy

Last reported at 2019-Sep-17 07:19 UTC. Time now 2019-Sep-17 08:19 UTC.
Position N 49°52' W 005°35'.

Length 262 m; draft 8.5 m.

Type: Passenger vessel. MMSI: 249051000.

Date/timePositionNaut miles runAvg speedWind from/ knotsBaromVisibWave heightAir tempDewpointWater temp
2019-Sep-17 07:19N 49°52' W 005°35'4710.3
2019-Sep-17 02:46N 50°30' W 006°16'913.3
2019-Sep-17 02:05N 50°37' W 006°27'113.3
2019-Sep-17 02:00N 50°38' W 006°28'713.1
2019-Sep-17 01:27N 50°43' W 006°36'813.1
2019-Sep-17 00:51N 50°48' W 006°45'713.0
2019-Sep-17 00:20N 50°53' W 006°52'512.9
2019-Sep-16 23:55N 50°57' W 006°58'4012.8
2019-Sep-16 20:48N 51°25' W 007°43'413.0
2019-Sep-16 20:30N 51°28' W 007°48'612.9
2019-Sep-16 20:00N 51°32' W 007°55'612.8
2019-Sep-16 19:30N 51°37' W 008°02'612.9
2019-Sep-16 19:00N 51°41' W 008°09'612.2
2019-Sep-16 18:30N 51°46' W 008°15'5 9.2
2019-Sep-16 18:01N 51°51' W 008°16'1 2.2
2019-Sep-16 17:29N 51°51' W 008°18'0 0.0
2019-Sep-16 17:01N 51°51' W 008°18'0 0.0
2019-Sep-16 16:28N 51°51' W 008°18'0 0.0
2019-Sep-16 15:58N 51°51' W 008°18'0 0.0
2019-Sep-16 15:28N 51°51' W 008°18'0 0.0
2019-Sep-16 14:58N 51°51' W 008°18'0 0.0
2019-Sep-16 14:28N 51°51' W 008°18'0 0.0
2019-Sep-16 13:58N 51°51' W 008°18'0 0.0
2019-Sep-16 13:28N 51°51' W 008°18'0 0.0
2019-Sep-16 12:58N 51°51' W 008°18'0 0.0
2019-Sep-16 12:28N 51°51' W 008°18'0 0.0
2019-Sep-16 11:58N 51°51' W 008°18'0 0.0
2019-Sep-16 11:28N 51°51' W 008°18'0 0.0
2019-Sep-16 10:58N 51°51' W 008°18'0 0.0
2019-Sep-16 10:28N 51°51' W 008°18'0 0.0
2019-Sep-16 09:58N 51°51' W 008°18'0 0.0
2019-Sep-16 09:28N 51°51' W 008°18'0 0.0
2019-Sep-16 08:58N 51°51' W 008°18'0 0.0
2019-Sep-16 08:28N 51°51' W 008°18'0 0.0
2019-Sep-16 08:00N 51°51' W 008°18'1 2.5
2019-Sep-16 07:30N 51°51' W 008°16'611.0
2019-Sep-16 07:00N 51°45' W 008°15'5 9.2
2019-Sep-16 06:31N 51°41' W 008°13'510.6
2019-Sep-16 06:00N 51°40' W 008°05'611.1
2019-Sep-16 05:30N 51°41' W 007°57'611.3
2019-Sep-16 05:00N 51°43' W 007°48'713.4
2019-Sep-16 04:30N 51°46' W 007°38'816.4
2019-Sep-16 04:00N 51°49' W 007°26'816.9
2019-Sep-16 03:30N 51°52' W 007°13'7115.9
2019-Sep-15 23:02N 52°45' W 005°54'116.6
2019-Sep-15 22:59N 52°45' W 005°54'816.5
2019-Sep-15 22:30N 52°53' W 005°53'816.3
2019-Sep-15 22:00N 53°01' W 005°55'815.4
2019-Sep-15 21:30N 53°09' W 005°57'815.9
2019-Sep-15 21:01N 53°16' W 006°01'611.7
2019-Sep-15 20:30N 53°21' W 006°08'3 5.5
2019-Sep-15 20:00N 53°21' W 006°13'0 0.0
2019-Sep-15 19:23N 53°21' W 006°13'0 0.0
2019-Sep-15 18:47N 53°21' W 006°13'0 0.0
2019-Sep-15 18:14N 53°21' W 006°13'0 0.0
2019-Sep-15 17:59N 53°21' W 006°13'0 0.0
2019-Sep-15 17:29N 53°21' W 006°13'0 0.0
2019-Sep-15 16:59N 53°21' W 006°13'0 0.0
2019-Sep-15 16:29N 53°21' W 006°13'0 0.0
2019-Sep-15 16:00N 53°21' W 006°13'0 0.0
2019-Sep-15 15:27N 53°21' W 006°13'0 0.0
2019-Sep-15 14:54N 53°21' W 006°13'0 0.0
2019-Sep-15 14:27N 53°21' W 006°13'0 0.0
2019-Sep-15 14:00N 53°21' W 006°13'0 0.0
2019-Sep-15 13:17N 53°21' W 006°13'0 0.0
2019-Sep-15 12:47N 53°21' W 006°13'0 0.0
2019-Sep-15 12:14N 53°21' W 006°13'0 0.0
2019-Sep-15 11:44N 53°21' W 006°13'0 0.0
2019-Sep-15 11:14N 53°21' W 006°13'0 0.0
2019-Sep-15 10:59N 53°21' W 006°13'0 0.0
2019-Sep-15 10:28N 53°21' W 006°13'0 0.0
2019-Sep-15 09:46N 53°21' W 006°13'0 0.0
2019-Sep-15 09:16N 53°21' W 006°13'0 0.0
2019-Sep-15 09:00N 53°21' W 006°13'1 2.1
2019-Sep-15 08:30N 53°21' W 006°11'4 8.9
2019-Sep-15 08:00N 53°20' W 006°04'510.9
2019-Sep-15 07:30N 53°23' W 005°56'611.4
2019-Sep-15 06:56N 53°28' W 005°49'3811.8
2019-Sep-15 03:42N 54°05' W 005°30'312.4
2019-Sep-15 03:27N 54°08' W 005°28'714.8
2019-Sep-15 02:57N 54°15' W 005°24'715.8
2019-Sep-15 02:30N 54°22' W 005°20'815.7
2019-Sep-15 02:00N 54°30' W 005°20'816.4
2019-Sep-15 01:30N 54°38' W 005°22'816.2
2019-Sep-15 01:00N 54°45' W 005°28'3317.9
2019-Sep-14 23:09N 55°13' W 005°58'319.9
2019-Sep-14 22:59N 55°16' W 006°01'918.5
2019-Sep-14 22:30N 55°22' W 006°13'917.9
2019-Sep-14 22:00N 55°26' W 006°27'1019.7
2019-Sep-14 21:30N 55°34' W 006°37'1019.7
2019-Sep-14 21:00N 55°42' W 006°47'1018.9
2019-Sep-14 20:30N 55°50' W 006°56'9915.0
2019-Sep-14 13:53N 57°29' W 006°54'  
2019-Sep-08 16:05N 59°06' W 002°27'218.8
2019-Sep-08 16:00N 59°05' W 002°29'918.4
2019-Sep-08 15:31N 59°01' W 002°45'713.1
2019-Sep-08 15:00N 59°01' W 002°58'1 2.4
2019-Sep-08 14:30N 58°60' W 002°58'0 0.0
2019-Sep-08 14:00N 58°60' W 002°58'0 0.0
2019-Sep-08 13:30N 58°60' W 002°58'0 0.0
2019-Sep-08 13:00N 58°60' W 002°58'0 0.0
2019-Sep-08 12:30N 58°60' W 002°58'0 0.0
2019-Sep-08 12:00N 58°60' W 002°58'0 0.0
2019-Sep-08 11:30N 58°60' W 002°58'0 0.0
2019-Sep-08 11:00N 58°60' W 002°58'0 0.0
2019-Sep-08 10:30N 58°60' W 002°58'0 0.0
2019-Sep-08 09:58N 58°60' W 002°58'0 0.0
2019-Sep-08 09:28N 58°60' W 002°58'0 0.0
2019-Sep-08 08:58N 58°60' W 002°58'0 0.0
2019-Sep-08 08:28N 58°60' W 002°58'0 0.0
2019-Sep-08 07:58N 58°60' W 002°58'0 0.0
2019-Sep-08 07:28N 58°60' W 002°58'0 0.0
2019-Sep-08 06:59N 58°60' W 002°58'0 0.5
2019-Sep-08 06:31N 59°00' W 002°58'5 9.4
2019-Sep-08 06:00N 59°01' W 002°49'612.4
2019-Sep-08 05:30N 58°60' W 002°37'711.9
2019-Sep-08 04:54N 58°55' W 002°27'1015.3
2019-Sep-08 04:16N 58°46' W 002°20'  

Dump ship's entire track history